This is the latest recevied weather packets stored in our database for station/object HOWARD. If no packets are shown the sender has not sent any weather packets the latest 10 day(s).
| Time | Temp. | Humidity | Pressure | Rain* | Wind** | Luminosity | Snow |
|---|---|---|---|---|---|---|---|
| 1777762312 | 12.22° C | 35% | 1014.7 hPa | 0 mm | - | - | - |
| 1777762304 | 11.67° C | 34% | 1015.3 hPa | 0 mm | - | - | - |
| 1777761704 | 12.22° C | 35% | 1014.7 hPa | 0 mm | - | - | - |
| 1777761104 | 12.22° C | 35% | 1014.9 hPa | 0 mm | - | - | - |
| 1777760504 | 11.67° C | 34% | 1014.9 hPa | 0 mm | - | - | - |
| 1777759907 | 11.67° C | 36% | 1015 hPa | 0 mm | - | - | - |
| 1777759304 | 10.56° C | 38% | 1015.2 hPa | 0 mm | - | - | - |
| 1777758704 | 10.56° C | 37% | 1015.3 hPa | 0 mm | - | - | - |
| 1777758105 | 10° C | 39% | 1015.5 hPa | 0 mm | - | - | - |
| 1777757504 | 10.56° C | 36% | 1015.6 hPa | 0 mm | - | - | - |
| 1777756904 | 10.56° C | 37% | 1015.7 hPa | 0 mm | - | - | - |
| 1777756304 | 10.56° C | 39% | 1015.7 hPa | 0 mm | - | - | - |
| 1777755704 | 10.56° C | 37% | 1015.7 hPa | 0 mm | - | - | - |
| 1777755104 | 10.56° C | 37% | 1015.8 hPa | 0 mm | - | - | - |
| 1777754504 | 10.56° C | 37% | 1015.8 hPa | 0 mm | - | - | - |
| 1777753904 | 11.11° C | 37% | 1015.7 hPa | 0 mm | - | - | - |
| 1777753304 | 11.11° C | 37% | 1015.9 hPa | 0 mm | - | - | - |
| 1777752744 | 10.56° C | 40% | 1015.9 hPa | 0 mm | - | - | - |
| 1777752704 | 10.56° C | 40% | 1015.9 hPa | 0 mm | - | - | - |
| 1777752104 | 10.56° C | 37% | 1015.9 hPa | 0 mm | - | - | - |
| 1777751504 | 10.56° C | 37% | 1015.9 hPa | 0 mm | - | - | - |
| 1777750940 | 10.56° C | 35% | 1015.9 hPa | 0 mm | - | - | - |
| 1777750904 | 10.56° C | 35% | 1015.9 hPa | 0 mm | - | - | - |
| 1777750304 | 10.56° C | 35% | 1016.1 hPa | 0 mm | - | - | - |
| 1777749704 | 11.11° C | 37% | 1016 hPa | 0 mm | - | - | - |
* Rain latest hour (hover to see other rain measurements)
** Current wind speed in m/s (hover to see current wind gust speed)